• Join FlightAware (Why Join?)
  • Login
  • US Flag 
09:11PM EDT


 

Airport Tracker/Info


-or-


 

Live Flight TrackerFlight Track Log ✈ AFR345 ✈ 27-Apr-2013 ✈ CYUL - LFPG / CDG

Flight Track Log - Related Links

Times and Time Zones

All times are in EDT time to prevent confusion due to time zone crossing. See the AFR345 flight status page for this flight to view local times or setup timezone preferences in your user account.

Time Position Orientation Groundspeed Altitude Reporting Facility
EDT Latitude Longitude Course Direction KTS MPH feet Rate Location/Type
04:57PM 45.4590 -73.7400 226° Southwest 168 193  Level FlightAware
04:57PM 45.4420 -73.7600 220° Southwest 171 197 900 2,100 Climbing FlightAware
04:58PM 45.4310 -73.7730 220° Southwest 173 199 1,600 1,440 Climbing FlightAware
04:58PM 45.4140 -73.7940 221° Southwest 195 224 2,000 900 Climbing FlightAware
04:58PM 45.4040 -73.8050 218° Southwest 213 245 2,200 1,020 Climbing FlightAware
04:59PM 45.3790 -73.8360 221° Southwest 252 290 2,800 1,440 Climbing FlightAware
04:59PM 45.3670 -73.8570 231° Southwest 257 296 3,300 2,640 Climbing FlightAware
04:59PM 45.3630 -73.8730 250° West 260 299 3,900 3,300 Climbing FlightAware
04:59PM 45.3620 -73.8900 265° West 262 302 4,400 2,580 Climbing FlightAware
05:00PM 45.3660 -73.9210 280° West 274 315 5,200 2,520 Climbing FlightAware
05:00PM 45.3740 -73.9470 294° West 278 320 5,900 1,920 Climbing FlightAware
05:00PM 45.3900 -73.9880 299° West 276 318 6,500 1,020 Climbing FlightAware
05:01PM 45.4040 -74.0060 318° Northwest 274 315 6,600 180 Climbing FlightAware
05:01PM 45.4190 -74.0210 325° Northwest 274 315 6,600  Level FlightAware
05:01PM 45.4520 -74.0520 327° Northwest 276 318 6,600 180 Level FlightAware
05:02PM 45.4800 -74.0740 331° Northwest 280 322 6,800 1,500 Climbing FlightAware
05:02PM 45.4980 -74.0810 345° North 277 319 7,600 2,880 Climbing FlightAware
05:03PM 45.5360 -74.0920 349° North 280 322 9,000 2,700 Climbing FlightAware
05:03PM 45.5430 -74.0910 North 284 327 9,400 2,400 Climbing FlightAware
05:03PM 45.5660 -74.0810 17° North 291 335 10,000 1,800 Climbing FlightAware
05:04PM 45.6100 -74.0290 40° Northeast 326 375 11,100 1,500 Climbing FlightAware
05:04PM 45.6640 -73.9670 39° Northeast 364 419 12,200 1,800 Climbing FlightAware
05:05PM 45.7210 -73.9060 37° Northeast 387 445 13,700 2,700 Climbing FlightAware
05:06PM 45.7890 -73.8330 37° Northeast 400 460 16,100 3,000 Climbing FlightAware
05:07PM 45.8450 -73.7610 42° Northeast 416 479 18,000 2,820 Climbing FlightAware
05:07PM 45.9050 -73.6740 45° Northeast 428 493 20,100 2,700 Climbing FlightAware
05:08PM 45.9600 -73.5910 46° Northeast 438 504 21,900 2,520 Climbing FlightAware
05:09PM 46.0110 -73.5140 46° Northeast 448 516 23,300 2,400 Climbing FlightAware
05:09PM 46.0840 -73.4050 46° Northeast 459 528 25,300 2,280 Climbing FlightAware
05:10PM 46.1420 -73.3180 46° Northeast 468 539 26,800 2,040 Climbing FlightAware
05:11PM 46.2120 -73.2130 46° Northeast 476 548 28,200 2,040 Climbing FlightAware
05:12PM 46.2810 -73.1090 46° Northeast 478 550 29,900 2,220 Climbing FlightAware
05:12PM 46.3410 -73.0180 46° Northeast 472 543 31,400 2,220 Climbing FlightAware
05:13PM 46.4010 -72.9270 46° Northeast 466 536 32,900 1,740 Climbing FlightAware
05:14PM 46.4640 -72.8300 47° Northeast 467 537 33,900 1,380 Climbing FlightAware
05:14PM 46.5270 -72.7340 46° Northeast 466 536 34,900 780 Climbing FlightAware
05:15PM 46.5860 -72.6440 46° Northeast 475 547 35,000 60 Climbing FlightAware
05:16PM 46.6480 -72.5480 47° Northeast 473 544 35,000  Level FlightAware
05:16PM 46.7140 -72.4460 47° Northeast 470 541 35,000  Level FlightAware
05:17PM 46.7850 -72.3360 47° Northeast 468 539 35,000  Level FlightAware
05:18PM 46.8410 -72.2490 47° Northeast 469 540 35,000  Level FlightAware
05:18PM 46.9000 -72.1560 47° Northeast 472 543 35,000  Level FlightAware
05:19PM 46.9670 -72.0510 47° Northeast 474 545 35,000  Level FlightAware
05:20PM 47.0260 -71.9580 47° Northeast 477 549 35,000  Level FlightAware
05:21PM 47.0930 -71.8520 47° Northeast 481 554 35,000  Level FlightAware
05:21PM 47.1540 -71.7560 47° Northeast 483 556 35,000  Level FlightAware
05:22PM 47.2140 -71.6600 47° Northeast 484 557 35,000  Level FlightAware
05:23PM 47.2820 -71.5500 48° Northeast 483 556 35,000  Level FlightAware
05:23PM 47.3430 -71.4530 47° Northeast 480 552 35,000  Level FlightAware
05:24PM 47.4010 -71.3590 48° Northeast 479 551 35,000  Level FlightAware
05:25PM 47.4690 -71.2500 47° Northeast 479 551 35,000  Level FlightAware
05:25PM 47.5280 -71.1540 48° Northeast 479 551 35,000  Level FlightAware
05:26PM 47.5950 -71.0450 48° Northeast 480 552 35,000  Level FlightAware
05:27PM 47.6540 -70.9480 48° Northeast 480 552 35,000  Level FlightAware
05:28PM 47.7130 -70.8500 48° Northeast 480 552 35,000  Level FlightAware
05:28PM 47.7800 -70.7400 48° Northeast 481 554 35,000  Level FlightAware
05:29PM 47.8390 -70.6420 48° Northeast 481 554 35,000  Level FlightAware
05:30PM 47.9060 -70.5310 48° Northeast 482 555 35,000  Level FlightAware
05:30PM 47.9650 -70.4320 48° Northeast 481 554 35,000  Level FlightAware
05:31PM 48.0240 -70.3330 48° Northeast 481 554 35,000  Level FlightAware
05:32PM 48.0900 -70.2230 48° Northeast 481 554 35,000  Level FlightAware
05:32PM 48.1490 -70.1240 48° Northeast 479 551 35,000  Level FlightAware
05:33PM 48.1930 -70.0480 49° Northeast 479 551 35,000  Level FlightAware
05:34PM 48.2740 -69.9100 49° Northeast 478 550 35,000  Level FlightAware
05:35PM 48.3300 -69.8160 48° Northeast 478 550 35,000  Level FlightAware
05:35PM 48.3910 -69.7130 48° Northeast 477 549 35,000  Level FlightAware
05:36PM 48.4410 -69.6290 48° Northeast 477 549 35,000  Level FlightAware
05:37PM 48.4910 -69.5450 48° Northeast 477 549 35,000  Level FlightAware
05:37PM 48.5410 -69.4610 48° Northeast 477 549 35,000  Level FlightAware
05:38PM 48.5910 -69.3760 48° Northeast 477 549 35,000  Level FlightAware
05:39PM 48.6540 -69.2710 48° Northeast 477 549 35,000  Level FlightAware
05:39PM 48.7040 -69.1860 48° Northeast 477 549 35,000  Level FlightAware
05:40PM 48.7550 -69.1020 47° Northeast 477 549 35,000  Level FlightAware
05:41PM 48.8050 -69.0170 48° Northeast 477 549 35,000  Level FlightAware
05:41PM 48.8550 -68.9320 48° Northeast 477 549 35,000  Level FlightAware
05:42PM 48.9180 -68.8260 48° Northeast 477 549 35,000  Level FlightAware
05:43PM 48.9680 -68.7420 48° Northeast 477 549 35,000  Level FlightAware
05:44PM 49.0180 -68.6570 48° Northeast 477 549 35,000  Level FlightAware
05:44PM 49.0680 -68.5710 48° Northeast 477 549 35,000  Level FlightAware
05:45PM 49.1167 -68.1500 48° Northeast 490 564 35,000  Level Moncton Center
05:45PM 49.1500 -68.0333 66° East 490 564 35,000  Level Montreal Center
05:46PM 49.2333 -67.8500 55° Northeast 490 564 35,000  Level Montreal Center
05:47PM 49.3000 -67.7000 56° Northeast 490 564 35,000  Level Montreal Center
05:48PM 49.3667 -67.5333 58° Northeast 490 564 35,000  Level Montreal Center
05:49PM 49.4500 -67.3333 57° Northeast 490 564 35,000  Level Montreal Center
05:50PM 49.5333 -67.1667 52° Northeast 490 564 35,000  Level Montreal Center
05:51PM 49.6000 -66.9667 63° Northeast 490 564 35,000  Level Montreal Center
05:52PM 49.6667 -66.8000 58° Northeast 490 564 35,000  Level Montreal Center
05:53PM 49.7500 -66.6333 52° Northeast 490 564 35,000  Level Montreal Center
05:55PM 49.9000 -66.2667 57° Northeast 490 564 35,000  Level Montreal Center
05:56PM 49.9833 -66.0833 55° Northeast 490 564 35,000  Level Montreal Center
05:57PM 50.0500 -65.9167 58° Northeast 490 564 35,000  Level Montreal Center
05:58PM 50.1167 -65.7333 60° Northeast 490 564 35,000  Level Montreal Center
05:59PM 50.1833 -65.5333 62° Northeast 500 575 35,000  Level Montreal Center
06:00PM 50.2667 -65.3667 52° Northeast 500 575 35,000  Level Montreal Center
06:01PM 50.3333 -65.1500 64° Northeast 500 575 35,000  Level Montreal Center
06:02PM 50.4167 -64.9833 52° Northeast 510 587 35,000  Level Montreal Center
06:03PM 50.4500 -64.9333 44° Northeast 510 587 35,000  Level Gander Center
06:04PM 50.5167 -64.7500 60° Northeast 510 587 35,000  Level Gander Center
06:05PM 50.6000 -64.5500 57° Northeast 510 587 35,000  Level Gander Center
06:06PM 50.6667 -64.3667 60° Northeast 510 587 35,000  Level Gander Center
06:07PM 50.7333 -64.1667 62° Northeast 510 587 35,000  Level Gander Center
06:08PM 50.8000 -63.9833 60° Northeast 520 598 35,000  Level Gander Center
06:09PM 50.8833 -63.7667 59° Northeast 520 598 35,000  Level Gander Center
06:10PM 50.9667 -63.5667 56° Northeast 520 598 35,000  Level Gander Center
06:11PM 51.0333 -63.3833 60° Northeast 520 598 35,000  Level Gander Center
06:12PM 51.1000 -63.1667 64° Northeast 520 598 35,000  Level Gander Center
06:13PM 51.1833 -62.9833 54° Northeast 520 598 35,000  Level Gander Center
06:14PM 51.2500 -62.7833 62° Northeast 520 598 35,000  Level Gander Center
06:15PM 51.3167 -62.5667 64° Northeast 530 610 35,000  Level Gander Center
06:16PM 51.3833 -62.3500 64° Northeast 530 610 35,000  Level Gander Center
06:17PM 51.4500 -62.1667 60° Northeast 530 610 35,000  Level Gander Center
06:18PM 51.5333 -61.9500 58° Northeast 530 610 35,000  Level Gander Center
06:19PM 51.6000 -61.7333 64° Northeast 540 621 35,000  Level Gander Center
06:20PM 51.6667 -61.5167 64° Northeast 540 621 35,000  Level Gander Center
06:21PM 51.7500 -61.3167 56° Northeast 530 610 35,000  Level Gander Center
06:22PM 51.8167 -61.1000 63° Northeast 540 621 35,000  Level Gander Center
06:23PM 51.8833 -60.8833 63° Northeast 540 621 35,000  Level Gander Center
06:24PM 51.9667 -60.6500 60° Northeast 540 621 35,000  Level Gander Center
06:25PM 52.0333 -60.4667 59° Northeast 540 621 35,000  Level Gander Center
06:26PM 52.1167 -60.2500 58° Northeast 540 621 35,000  Level Gander Center
06:27PM 52.2000 -60.0333 58° Northeast 540 621 35,000  Level Gander Center
06:28PM 52.2667 -59.8333 61° Northeast 540 621 35,000  Level Gander Center
06:29PM 52.3500 -59.6167 58° Northeast 540 621 35,000  Level Gander Center
06:30PM 52.4333 -59.4167 56° Northeast 540 621 35,000  Level Gander Center
06:31PM 52.5000 -59.1667 66° East 540 621 35,000 300 Level Gander Center
06:32PM 52.5667 -58.9667 61° Northeast 550 633 35,600 960 Climbing Gander Center
06:33PM 52.6500 -58.7500 58° Northeast 550 633 37,000 660 Climbing Gander Center
06:34PM 52.7333 -58.5167 59° Northeast 550 633 37,000  Level Gander Center
06:35PM 52.8000 -58.3000 63° Northeast 540 621 37,000  Level Gander Center
06:36PM 52.8667 -58.0833 63° Northeast 540 621 37,000  Level Moncton Center
06:37PM 52.9500 -57.8500 59° Northeast 540 621 37,000  Level Moncton Center
06:38PM 53.0000 -57.6167 70° East 540 621 37,000  Level Moncton Center
06:39PM 53.0667 -57.4167 61° Northeast 550 633 37,000  Level Gander Center
06:40PM 53.1500 -57.1833 59° Northeast 550 633 37,000  Level Gander Center
06:41PM 53.2167 -56.9833 61° Northeast 550 633 37,000  Level Gander Center
06:42PM 53.3000 -56.7500 59° Northeast 550 633 37,000  Level Gander Center
06:43PM 53.3500 -56.5167 70° East 550 633 37,000  Level Gander Center
06:44PM 53.4333 -56.2833 59° Northeast 550 633 37,000  Level Gander Center
06:45PM 53.5000 -56.0500 64° Northeast 550 633 37,000  Level Gander Center
06:46PM 53.5667 -55.8167 64° Northeast 550 633 37,000  Level Gander Center
06:47PM 53.6500 -55.6167 55° Northeast 550 633 37,000  Level Gander Center
06:48PM 53.7000 -55.3833 70° East 550 633 37,000  Level Gander Center
06:49PM 53.7833 -55.1333 60° Northeast 560 644 37,000  Level Gander Center
06:50PM 53.8500 -54.9000 64° Northeast 560 644 37,000  Level Gander Center
06:51PM 53.9167 -54.6333 67° East 560 644 37,000  Level Gander Center
06:52PM 53.9667 -54.4333 67° East 550 633 37,000  Level Gander Center
06:53PM 54.0333 -54.1833 65° Northeast 560 644 37,000  Level Gander Center
06:54PM 54.0833 -53.9500 70° East 560 644 37,000  Level Gander Center
06:55PM 54.1500 -53.7167 64° Northeast 560 644 37,000  Level Gander Center
06:56PM 54.2000 -53.4500 72° East 560 644 37,000  Level Gander Center
06:57PM 54.2667 -53.2000 65° Northeast 560 644 37,000  Level Gander Center
06:58PM 54.3167 -52.9667 70° East 560 644 37,000  Level Gander Center
06:59PM 54.3667 -52.7167 71° East 560 644 37,000  Level Gander Center
07:00PM 54.4333 -52.4667 65° Northeast 560 644 37,000  Level Gander Center
07:01PM 54.4833 -52.2000 72° East 560 644 37,000  Level Gander Center
07:02PM 54.5667 -51.8667 67° East 280 322 37,000  Level Gander Center
07:04PM 54.6433 -51.5480 67° East  Level FlightAware Approximate
07:11PM 55.0066 -49.9739 66° East  Level FlightAware Approximate
07:12PM 55.0623 -49.7509 66° East  Level FlightAware Approximate
07:13PM 55.1177 -49.5272 67° East  Level FlightAware Approximate
07:14PM 55.1727 -49.3029 67° East  Level FlightAware Approximate
07:15PM 55.2272 -49.0780 67° East  Level FlightAware Approximate
07:16PM 55.2813 -48.8525 67° East  Level FlightAware Approximate
07:17PM 55.3350 -48.6264 67° East  Level FlightAware Approximate
07:18PM 55.3884 -48.3997 67° East  Level FlightAware Approximate
07:19PM 55.4412 -48.1723 68° East  Level FlightAware Approximate
07:20PM 55.4937 -47.9444 68° East  Level FlightAware Approximate
07:21PM 55.5457 -47.7158 68° East  Level FlightAware Approximate
07:22PM 55.5973 -47.4867 68° East  Level FlightAware Approximate
07:23PM 55.6485 -47.2569 68° East  Level FlightAware Approximate
07:24PM 55.6988 -47.0263 69° East  Level FlightAware Approximate
07:25PM 55.7487 -46.7951 69° East  Level FlightAware Approximate
07:26PM 55.7982 -46.5633 69° East  Level FlightAware Approximate
07:27PM 55.8473 -46.3308 69° East  Level FlightAware Approximate
07:28PM 55.8959 -46.0979 70° East  Level FlightAware Approximate
07:29PM 55.9440 -45.8643 70° East  Level FlightAware Approximate
07:29PM 56.1000 -44.9833 71° East 550 633 37,000  Level Gander Center
07:30PM 55.9917 -45.6302 70° East  Level FlightAware Approximate
07:30PM 56.1500 -44.7167 71° East 550 633 37,000  Level Gander Center
07:31PM 56.0390 -45.3955 70° East  Level FlightAware Approximate
07:31PM 56.1833 -44.4667 76° East 550 633 37,000  Level Gander Center
07:32PM 56.0859 -45.1602 70° East  Level FlightAware Approximate
07:32PM 56.2333 -44.2167 70° East 550 633 37,000  Level Gander Center
07:33PM 56.1322 -44.9243 70° East  Level FlightAware Approximate
07:33PM 56.2833 -43.9500 71° East 550 633 37,000  Level Gander Center
07:34PM 56.1782 -44.6879 71° East  Level FlightAware Approximate
07:34PM 56.3333 -43.6833 71° East 550 633 37,000  Level Gander Center
07:35PM 56.3667 -43.4167 77° East 550 633 37,000  Level Gander Center
07:36PM 56.4167 -43.1833 69° East 550 633 37,000  Level Gander Center
07:37PM 56.4667 -42.9167 71° East 550 633 37,000  Level Gander Center
07:38PM 56.5167 -42.6333 72° East 550 633 37,000  Level Gander Center
07:39PM 56.5667 -42.3667 71° East 550 633 37,000  Level Gander Center
07:40PM 56.6167 -42.1333 69° East 550 633 37,000  Level Gander Center
07:41PM 56.6500 -41.8500 78° East 550 633 37,000  Level Gander Center
07:42PM 56.7000 -41.5833 71° East 550 633 37,000  Level Gander Center
07:43PM 56.7500 -41.3333 70° East 550 633 37,000  Level Gander Center
07:44PM 56.7833 -41.0667 77° East 550 633 37,000  Level Gander Center
07:45PM 56.8333 -40.7833 72° East 550 633 37,000  Level Gander Center
07:46PM 56.8667 -40.5167 77° East 550 633 37,000  Level Gander Center
07:47PM 56.9167 -40.2333 72° East 560 644 37,000  Level Gander Center
07:48PM 56.9500 -39.9833 76° East 560 644 37,000  Level Gander Center
07:49PM 56.9667 -39.7000 84° East 560 644 37,000  Level Gander Center
07:50PM 57.0000 -39.4333 77° East 560 644 37,000  Level Gander Center
07:51PM 57.0000 -39.1333 90° East 560 644 37,000  Level Gander Center
07:52PM 57.0167 -38.8500 84° East 560 644 37,000  Level Gander Center
07:53PM 57.0167 -38.5833 90° East 560 644 37,000  Level Gander Center
07:54PM 57.0167 -38.3000 90° East 560 644 37,000  Level Gander Center
07:55PM 57.0333 -38.0000 84° East 560 644 37,000  Level Gander Center
07:56PM 57.0333 -37.7667 90° East 550 633 37,000  Level Gander Center
07:58PM 57.0426 -37.3944 87° East  Level FlightAware Approximate
08:05PM 57.0718 -35.5953 88° East  Level FlightAware Approximate
08:06PM 57.0739 -35.3381 89° East  Level FlightAware Approximate
08:07PM 57.0754 -35.0808 89° East  Level FlightAware Approximate
08:08PM 57.0764 -34.8236 89° East  Level FlightAware Approximate
08:09PM 57.0769 -34.5663 90° East  Level FlightAware Approximate
08:10PM 57.0769 -34.3091 90° East  Level FlightAware Approximate
08:11PM 57.0763 -34.0518 90° East  Level FlightAware Approximate
08:12PM 57.0752 -33.7946 90° East  Level FlightAware Approximate
08:13PM 57.0736 -33.5373 91° East  Level FlightAware Approximate
08:14PM 57.0714 -33.2801 91° East  Level FlightAware Approximate
08:15PM 57.0688 -33.0230 91° East  Level FlightAware Approximate
08:16PM 57.0656 -32.7659 91° East  Level FlightAware Approximate
08:17PM 57.0621 -32.5088 91° East  Level FlightAware Approximate
08:18PM 57.0581 -32.2517 92° East  Level FlightAware Approximate
08:19PM 57.0535 -31.9947 92° East  Level FlightAware Approximate
08:20PM 57.0484 -31.7378 92° East  Level FlightAware Approximate
08:21PM 57.0428 -31.4810 92° East  Level FlightAware Approximate
08:22PM 57.0366 -31.2242 92° East  Level FlightAware Approximate
08:23PM 57.0299 -30.9676 93° East  Level FlightAware Approximate
08:24PM 57.0227 -30.7110 93° East  Level FlightAware Approximate
08:25PM 57.0150 -30.4545 93° East  Level FlightAware Approximate
08:26PM 57.0067 -30.1982 93° East  Level FlightAware Approximate
08:27PM 56.9965 -29.9422 96° East  Level FlightAware Approximate
08:28PM 56.9810 -29.6871 96° East  Level FlightAware Approximate
08:29PM 56.9649 -29.4323 97° East  Level FlightAware Approximate
08:30PM 56.9482 -29.1777 97° East  Level FlightAware Approximate
08:31PM 56.9311 -28.9233 97° East  Level FlightAware Approximate
08:32PM 56.9135 -28.6691 97° East  Level FlightAware Approximate
08:33PM 56.8953 -28.4152 97° East  Level FlightAware Approximate
08:34PM 56.8766 -28.1616 98° East  Level FlightAware Approximate
08:35PM 56.8574 -27.9082 98° East  Level FlightAware Approximate
08:36PM 56.8377 -27.6551 98° East  Level FlightAware Approximate
08:37PM 56.8175 -27.4022 98° East  Level FlightAware Approximate
08:38PM 56.7968 -27.1496 98° East  Level FlightAware Approximate
08:39PM 56.7755 -26.8973 99° East  Level FlightAware Approximate
08:40PM 56.7538 -26.6453 99° East  Level FlightAware Approximate
08:41PM 56.7315 -26.3936 99° East  Level FlightAware Approximate
08:42PM 56.7088 -26.1421 99° East  Level FlightAware Approximate
08:43PM 56.6855 -25.8910 99° East  Level FlightAware Approximate
08:44PM 56.6618 -25.6402 100° East  Level FlightAware Approximate
08:45PM 56.6375 -25.3897 100° East  Level FlightAware Approximate
08:46PM 56.6127 -25.1396 100° East  Level FlightAware Approximate
08:47PM 56.5874 -24.8898 100° East  Level FlightAware Approximate
08:48PM 56.5617 -24.6403 101° East  Level FlightAware Approximate
08:49PM 56.5354 -24.3911 101° East  Level FlightAware Approximate
08:50PM 56.5086 -24.1423 101° East  Level FlightAware Approximate
08:51PM 56.4814 -23.8939 101° East  Level FlightAware Approximate
08:52PM 56.4537 -23.6458 101° East  Level FlightAware Approximate
08:53PM 56.4254 -23.3981 102° East  Level FlightAware Approximate
08:54PM 56.3967 -23.1507 102° East  Level FlightAware Approximate
08:55PM 56.3675 -22.9037 102° East  Level FlightAware Approximate
08:56PM 56.3378 -22.6571 102° East  Level FlightAware Approximate
08:57PM 56.3077 -22.4109 102° East  Level FlightAware Approximate
08:58PM 56.2770 -22.1651 103° East  Level FlightAware Approximate
08:59PM 56.2471 -21.9192 102° East  Level FlightAware Approximate
09:00PM 56.2173 -21.6734 102° East  Level FlightAware Approximate
09:01PM 56.1870 -21.4280 102° East  Level FlightAware Approximate
09:02PM 56.1562 -21.1830 103° East  Level FlightAware Approximate
09:03PM 56.1249 -20.9384 103° East  Level FlightAware Approximate
09:04PM 56.0932 -20.6942 103° East  Level FlightAware Approximate
09:05PM 56.0609 -20.4504 103° East  Level FlightAware Approximate
09:06PM 56.0282 -20.2070 103° East  Level FlightAware Approximate
09:07PM 55.9944 -19.9643 106° East  Level FlightAware Approximate
09:08PM 55.9565 -19.7238 106° East  Level FlightAware Approximate
09:09PM 55.9182 -19.4837 106° East  Level FlightAware Approximate
09:10PM 55.8794 -19.2441 106° East  Level FlightAware Approximate
09:11PM 55.8401 -19.0050 106° East  Level FlightAware Approximate
09:12PM 55.8004 -18.7664 106° East  Level FlightAware Approximate
09:13PM 55.7602 -18.5282 107° East  Level FlightAware Approximate
09:14PM 55.7201 -18.2903 107° East  Level FlightAware Approximate
09:15PM 55.6795 -18.0528 107° East  Level FlightAware Approximate
09:16PM 55.6385 -17.8159 107° East  Level FlightAware Approximate
09:17PM 55.5970 -17.5794 107° East  Level FlightAware Approximate
09:18PM 55.5550 -17.3435 107° East  Level FlightAware Approximate
09:19PM 55.5126 -17.1080 108° East  Level FlightAware Approximate
09:20PM 55.4697 -16.8731 108° East  Level FlightAware Approximate
09:21PM 55.4264 -16.6387 108° East  Level FlightAware Approximate
09:22PM 55.3827 -16.4048 108° East  Level FlightAware Approximate
09:23PM 55.3385 -16.1714 108° East  Level FlightAware Approximate
09:24PM 55.2938 -15.9385 109° East  Level FlightAware Approximate
09:25PM 55.2487 -15.7062 109° East  Level FlightAware Approximate
09:26PM 55.2032 -15.4744 109° East  Level FlightAware Approximate
09:27PM 55.1573 -15.2431 109° East  Level FlightAware Approximate
09:28PM 55.1109 -15.0124 109° East  Level FlightAware Approximate
09:28PM 54.7610 -13.6250 109° East 524 603 37,000  Level FlightAware
09:28PM 54.7300 -13.4450 107° East 524 603 37,000  Level FlightAware
09:29PM 54.7060 -13.3020 106° East 524 603 37,000  Level FlightAware
09:30PM 54.6580 -13.0200 106° East 523 602 37,000  Level FlightAware
09:31PM 54.6260 -12.8370 107° East 522 601 37,000  Level FlightAware
09:32PM 54.5980 -12.6810 107° East 522 601 37,000  Level FlightAware
09:32PM 54.5690 -12.5190 107° East 521 600 37,000  Level FlightAware
09:33PM 54.5370 -12.3400 107° East 519 597 37,000  Level FlightAware
09:34PM 54.5080 -12.1800 107° East 519 597 37,000  Level FlightAware
09:34PM 54.4810 -12.0270 107° East 518 596 37,000  Level FlightAware
09:35PM 54.4470 -11.8450 108° East 517 595 37,000  Level FlightAware
09:36PM 54.4170 -11.6860 108° East 519 597 37,000  Level FlightAware
09:36PM 54.3850 -11.5130 108° East 514 592 37,000  Level FlightAware
09:37PM 54.3560 -11.3580 108° East 511 588 37,000  Level FlightAware
09:38PM 54.3230 -11.1870 108° East 510 587 37,000  Level FlightAware
09:39PM 54.2920 -11.0280 108° East 509 586 37,000  Level FlightAware
09:39PM 54.2640 -10.8800 108° East 510 587 37,000  Level FlightAware
09:40PM 54.2310 -10.7110 108° East 510 587 37,000  Level FlightAware
09:41PM 54.2010 -10.5570 108° East 511 588 37,000  Level FlightAware
09:41PM 54.1700 -10.4060 109° East 511 588 37,000  Level FlightAware
09:42PM 54.1350 -10.2320 109° East 511 588 37,000  Level FlightAware
09:43PM 54.1050 -10.0820 109° East 510 587 37,000  Level FlightAware
09:43PM 54.0700 -9.9100 109° East 505 581 37,000  Level FlightAware
09:44PM 54.0400 -9.7610 109° East 505 581 37,000  Level FlightAware
09:45PM 54.0090 -9.6150 110° East 503 579 37,000  Level FlightAware
09:46PM 53.9740 -9.4460 109° East 499 574 37,000  Level FlightAware
09:46PM 53.9430 -9.2990 110° East 499 574 37,000  Level FlightAware
09:47PM 53.9080 -9.1330 110° East 499 574 37,000 -1,080 Level FlightAware
09:48PM 53.8730 -8.9697 110° East 482 555 35,500  Descending FlightAware UK
09:48PM 53.8720 -8.9660 110° East 501 577 37,000  Climbing FlightAware
09:48PM 53.8540 -8.8811 110° East 486 559 35,500 -2,520 Descending FlightAware UK
09:48PM 53.8398 -8.8147 110° East 484 557 35,500 4,080 Level FlightAware UK
09:48PM 53.8410 -8.8190 110° East 500 575 37,000  Climbing FlightAware
09:49PM 53.8208 -8.7262 110° East 490 564 35,500 -2,400 Descending FlightAware UK
09:49PM 53.8064 -8.6601 110° East 488 562 35,500 4,500 Level FlightAware UK
09:49PM 53.8090 -8.6710 110° East 497 572 37,000  Climbing FlightAware
09:49PM 53.7919 -8.5941 110° East 490 564 35,500 -2,700 Descending FlightAware UK
09:50PM 53.7774 -8.5284 110° East 484 557 35,500 3,060 Level FlightAware UK
09:50PM 53.7740 -8.5110 110° East 494 568 37,000  Climbing FlightAware
09:50PM 53.7533 -8.4190 110° East 482 555 35,500 -2,460 Descending FlightAware UK
09:50PM 53.7390 -8.3538 110° East 484 557 35,500 4,260 Level FlightAware UK
09:50PM 53.7400 -8.3590 110° East 492 566 37,000  Climbing FlightAware
09:51PM 53.7246 -8.2891 110° East 482 555 35,500 -2,760 Descending FlightAware UK
09:51PM 53.7104 -8.2241 110° East 486 559 35,500 3,000 Level FlightAware UK
09:51PM 53.7050 -8.2010 110° East 490 564 37,000  Climbing FlightAware
09:52PM 53.6864 -8.1163 110° East 482 555 35,500 -2,520 Descending FlightAware UK
09:52PM 53.6719 -8.0519 111° Southeast 482 555 35,500 4,080 Level FlightAware UK
09:52PM 53.6730 -8.0550 111° Southeast 487 560 37,000  Climbing FlightAware
09:52PM 53.6525 -7.9664 111° Southeast 478 550 35,500 -2,400 Descending FlightAware UK
09:53PM 53.6381 -7.9022 111° Southeast 480 552 35,500 4,500 Level FlightAware UK
09:53PM 53.6410 -7.9150 111° Southeast 488 562 37,000  Climbing FlightAware
09:53PM 53.6237 -7.8383 111° Southeast 482 555 35,500 -2,700 Descending FlightAware UK
09:53PM 53.6092 -7.7744 111° Southeast 486 559 35,500 3,060 Level FlightAware UK
09:53PM 53.6050 -7.7550 111° Southeast 489 563 37,000  Climbing FlightAware
09:54PM 53.5850 -7.6683 111° Southeast 484 557 35,500 -2,460 Descending FlightAware UK
09:54PM 53.5704 -7.6045 111° Southeast 486 559 35,500 4,260 Level FlightAware UK
09:54PM 53.5720 -7.6100 111° Southeast 488 562 37,000  Climbing FlightAware
09:54PM 53.5560 -7.5408 111° Southeast 482 555 35,500 -2,760 Descending FlightAware UK
09:55PM 53.5413 -7.4774 111° Southeast 482 555 35,500 3,600 Level FlightAware UK
09:55PM 53.5390 -7.4690 111° Southeast 487 560 37,000  Climbing FlightAware
09:55PM 53.5217 -7.3929 111° Southeast 480 552 35,500 -2,580 Descending FlightAware UK
09:55PM 53.5070 -7.3294 111° Southeast 480 552 35,500 3,180 Level FlightAware UK
09:55PM 53.5010 -7.3040 111° Southeast 487 560 37,000  Climbing FlightAware
09:56PM 53.4824 -7.2233 111° Southeast 482 555 35,500 -2,400 Descending FlightAware UK
09:56PM 53.4677 -7.1601 111° Southeast 486 559 35,500 4,500 Level FlightAware UK
09:56PM 53.4700 -7.1700 111° Southeast 487 560 37,000  Climbing FlightAware
09:56PM 53.4529 -7.0971 111° Southeast 484 557 35,500 -2,700 Descending FlightAware UK
09:57PM 53.4382 -7.0341 111° Southeast 482 555 35,500 3,060 Level FlightAware UK
09:57PM 53.4330 -7.0110 111° Southeast 485 558 37,000  Climbing FlightAware
09:57PM 53.4135 -6.9295 111° Southeast 482 555 35,500 -2,460 Descending FlightAware UK
09:57PM 53.3986 -6.8667 112° Southeast 478 550 35,500 4,260 Level FlightAware UK
09:57PM 53.4000 -6.8720 112° Southeast 486 559 37,000  Climbing FlightAware
09:58PM 53.3837 -6.8039 112° Southeast 474 545 35,500 -2,760 Descending FlightAware UK
09:58PM 53.3687 -6.7410 112° Southeast 482 555 35,500 3,000 Level FlightAware UK
09:58PM 53.3620 -6.7150 112° Southeast 489 563 37,000  Climbing FlightAware
09:59PM 53.3437 -6.6360 112° Southeast 482 555 35,500 -2,520 Descending FlightAware UK
09:59PM 53.3285 -6.5730 112° Southeast 482 555 35,500 4,080 Level FlightAware UK
09:59PM 53.3270 -6.5650 112° Southeast 489 563 37,000  Climbing FlightAware
09:59PM 53.3083 -6.4890 112° Southeast 486 559 35,500 -2,400 Descending FlightAware UK
10:00PM 53.2931 -6.4261 112° Southeast 486 559 35,500 4,500 Level FlightAware UK
10:00PM 53.2930 -6.4280 112° Southeast 487 560 37,000  Climbing FlightAware
10:00PM 53.2778 -6.3634 112° Southeast 484 557 35,500 -2,700 Descending FlightAware UK
10:00PM 53.2624 -6.3008 112° Southeast 482 555 35,500 3,060 Level FlightAware UK
10:00PM 53.2550 -6.2710 112° Southeast 486 559 37,000  Climbing FlightAware
10:01PM 53.2371 -6.1966 112° Southeast 482 555 35,500 -2,460 Descending FlightAware UK
10:01PM 53.2219 -6.1343 112° Southeast 480 552 35,500 4,260 Level FlightAware UK
10:01PM 53.2220 -6.1350 112° Southeast 487 560 37,000  Climbing FlightAware
10:01PM 53.2065 -6.0713 112° Southeast 484 557 35,500 -2,760 Descending FlightAware UK
10:02PM 53.1912 -6.0090 112° Southeast 484 557 35,500 3,000 Level FlightAware UK
10:02PM 53.1830 -5.9780 112° Southeast 486 559 37,000  Climbing FlightAware
10:02PM 53.1657 -5.9053 112° Southeast 488 562 35,500 -2,520 Descending FlightAware UK
10:02PM 53.1501 -5.8434 113° Southeast 486 559 35,500 4,080 Level FlightAware UK
10:02PM 53.1470 -5.8370 113° Southeast 486 559 37,000  Climbing FlightAware
10:03PM 53.1255 -5.7638 113° Southeast 484 557 35,500 -2,400 Descending FlightAware UK
10:03PM 53.1064 -5.7042 118° Southeast 486 559 35,500 4,500 Level FlightAware UK
10:03PM 53.1070 -5.7070 118° Southeast 484 557 37,000  Climbing FlightAware
10:03PM 53.0868 -5.6467 118° Southeast 486 559 35,500 -2,700 Descending FlightAware UK
10:04PM 53.0665 -5.5891 120° Southeast 486 559 35,500 3,060 Level FlightAware UK
10:04PM 53.0560 -5.5620 120° Southeast 482 555 37,000  Climbing FlightAware
10:04PM 53.0319 -5.4931 120° Southeast 484 557 35,500 -2,460 Descending FlightAware UK
10:04PM 53.0112 -5.4363 121° Southeast 484 557 35,500 4,260 Level FlightAware UK
10:04PM 53.0100 -5.4340 121° Southeast 481 554 37,000  Climbing FlightAware
10:05PM 52.9903 -5.3798 121° Southeast 482 555 35,500 -2,760 Descending FlightAware UK
10:05PM 52.9694 -5.3235 122° Southeast 482 555 35,500 3,600 Level FlightAware UK
10:05PM 52.9650 -5.3120 122° Southeast 480 552 37,000  Climbing FlightAware
10:05PM 52.9415 -5.2484 122° Southeast 480 552 35,500 -2,520 Descending FlightAware UK
10:06PM 52.9204 -5.1914 121° Southeast 480 552 35,500 3,180 Level FlightAware UK
10:06PM 52.9120 -5.1670 121° Southeast 480 552 37,000  Climbing FlightAware
10:06PM 52.8861 -5.0980 121° Southeast 478 550 35,500 -2,400 Descending FlightAware UK
10:07PM 52.8654 -5.0417 121° Southeast 476 548 35,500 4,500 Level FlightAware UK
10:07PM 52.8660 -5.0450 121° Southeast 480 552 37,000  Climbing FlightAware
10:07PM 52.8448 -4.9854 121° Southeast 478 550 35,500 -2,700 Descending FlightAware UK
10:07PM 52.8240 -4.9293 121° Southeast 476 548 35,500 3,060 Level FlightAware UK
10:07PM 52.8150 -4.9040 121° Southeast 481 554 37,000 3,300 Climbing FlightAware
10:08PM 52.7933 -4.8465 122° Southeast 481 554 37,000 -2,940 Level FlightAware ADS-B
10:08PM 52.7754 -4.7981 122° Southeast 478 550 35,500 -2,760 Descending FlightAware UK
10:08PM 52.7545 -4.7418 122° Southeast 480 552 35,500 3,000 Level FlightAware UK
10:08PM 52.7410 -4.7060 122° Southeast 481 554 37,000  Climbing FlightAware ADS-B
10:09PM 52.7193 -4.6476 122° Southeast 478 550 35,500  Descending FlightAware UK
10:09PM 52.7053 -4.6105 122° Southeast 483 556 37,000  Climbing FlightAware ADS-B
10:09PM 52.6844 -4.5539 122° Southeast 478 550 35,500  Descending FlightAware UK
10:09PM 52.6673 -4.5090 122° Southeast 483 556 37,000  Climbing FlightAware ADS-B
10:10PM 52.6492 -4.4603 122° Southeast 480 552 35,500  Descending FlightAware UK
10:10PM 52.6320 -4.4152 122° Southeast 484 557 37,000  Climbing FlightAware ADS-B
10:10PM 52.6137 -4.3662 122° Southeast 480 552 35,500  Descending FlightAware UK
10:10PM 52.5961 -4.3201 122° Southeast 483 556 37,000  Climbing FlightAware ADS-B
10:11PM 52.5783 -4.2727 122° Southeast 482 555 35,500  Descending FlightAware UK
10:11PM 52.5604 -4.2259 122° Southeast 483 556 37,000  Climbing FlightAware ADS-B
10:11PM 52.5432 -4.1801 122° Southeast 480 552 35,500  Descending FlightAware UK
10:11PM 52.5241 -4.1305 122° Southeast 483 556 37,000  Climbing FlightAware ADS-B
10:12PM 52.5001 -4.0668 122° Southeast 476 548 35,500  Descending FlightAware UK
10:12PM 52.4879 -4.0356 122° Southeast 483 556 37,000  Climbing FlightAware ADS-B
10:12PM 52.4648 -3.9748 122° Southeast 476 548 35,500  Descending FlightAware UK
10:12PM 52.4520 -3.9421 122° Southeast 484 557 37,000  Climbing FlightAware ADS-B
10:13PM 52.4290 -3.8814 122° Southeast 478 550 35,500  Descending FlightAware UK
10:13PM 52.4163 -3.8492 122° Southeast 485 558 37,000  Climbing FlightAware ADS-B
10:13PM 52.3936 -3.7898 122° Southeast 480 552 35,500  Descending FlightAware UK
10:13PM 52.3794 -3.7536 122° Southeast 485 558 37,000  Climbing FlightAware ADS-B
10:14PM 52.3575 -3.6965 122° Southeast 476 548 35,500  Descending FlightAware UK
10:14PM 52.3433 -3.6605 122° Southeast 484 557 37,000  Climbing FlightAware ADS-B
10:14PM 52.3215 -3.6039 122° Southeast 476 548 35,500  Descending FlightAware UK
10:14PM 52.3075 -3.5683 122° Southeast 485 558 37,000  Climbing FlightAware ADS-B
10:15PM 52.2852 -3.5108 122° Southeast 476 548 35,500  Descending FlightAware UK
10:15PM 52.2701 -3.4728 122° Southeast 487 560 37,000  Climbing FlightAware ADS-B
10:15PM 52.2490 -3.4184 122° Southeast 478 550 35,500  Descending FlightAware UK
10:15PM 52.2332 -3.3784 122° Southeast 487 560 37,000  Climbing FlightAware ADS-B
10:16PM 52.2122 -3.3247 122° Southeast 480 552 35,500  Descending FlightAware UK
10:16PM 52.1964 -3.2848 122° Southeast 487 560 37,000  Climbing FlightAware ADS-B
10:16PM 52.1758 -3.2324 122° Southeast 482 555 35,500  Descending FlightAware UK
10:16PM 52.1573 -3.1859 122° Southeast 488 562 37,000  Climbing FlightAware ADS-B
10:17PM 52.1322 -3.1220 122° Southeast 486 559 35,500  Descending FlightAware UK
10:17PM 52.1200 -3.0920 122° Southeast 488 562 37,000  Climbing FlightAware ADS-B
10:17PM 52.1027 -3.0477 122° Southeast 480 552 35,500  Descending FlightAware UK
10:18PM 52.0801 -2.9917 122° Southeast 487 560 37,000  Climbing FlightAware ADS-B
10:18PM 52.0583 -2.9366 122° Southeast 480 552 35,500  Descending FlightAware UK
10:18PM 52.0427 -2.8981 122° Southeast 487 560 37,000  Climbing FlightAware ADS-B
10:18PM 52.0216 -2.8449 122° Southeast 474 545 35,500  Descending FlightAware UK
10:19PM 52.0058 -2.8057 122° Southeast 488 562 37,000  Climbing FlightAware ADS-B
10:19PM 51.9849 -2.7531 122° Southeast 472 543 35,500  Descending FlightAware UK
10:19PM 51.9687 -2.7134 122° Southeast 491 565 37,000  Climbing FlightAware ADS-B
10:19PM 51.9478 -2.6606 122° Southeast 476 548 35,500  Descending FlightAware UK
10:20PM 51.9310 -2.6199 122° Southeast 493 567 37,000  Climbing FlightAware ADS-B
10:20PM 51.9104 -2.5680 122° Southeast 474 545 35,500  Descending FlightAware UK
10:20PM 51.8912 -2.5215 122° Southeast 495 570 37,000  Climbing FlightAware ADS-B
10:20PM 51.8720 -2.4740 122° Southeast 478 550 35,500  Descending FlightAware UK
10:21PM 51.8530 -2.4278 122° Southeast 497 572 37,000  Climbing FlightAware ADS-B
10:21PM 51.8268 -2.3633 122° Southeast 484 557 35,500  Descending FlightAware UK
10:21PM 51.8145 -2.3338 122° Southeast 499 574 37,000  Climbing FlightAware ADS-B
10:21PM 51.7874 -2.2709 122° Southeast 486 559 35,500  Descending FlightAware UK
10:22PM 51.7731 -2.2403 122° Southeast 500 575 37,000  Climbing FlightAware ADS-B
10:22PM 51.7458 -2.1810 122° Southeast 484 557 35,500  Descending FlightAware UK
10:22PM 51.7303 -2.1498 122° Southeast 501 577 37,000  Climbing FlightAware ADS-B
10:22PM 51.7034 -2.0944 122° Southeast 480 552 35,500  Descending FlightAware UK
10:23PM 51.6856 -2.0599 122° Southeast 503 579 37,000  Climbing FlightAware ADS-B
10:23PM 51.6588 -2.0064 122° Southeast 490 564 35,500  Descending FlightAware UK
10:23PM 51.6414 -1.9732 122° Southeast 502 578 37,000  Climbing FlightAware ADS-B
10:23PM 51.6148 -1.9212 122° Southeast 492 566 35,500  Descending FlightAware UK
10:24PM 51.5972 -1.8877 122° Southeast 499 574 37,000  Climbing FlightAware ADS-B
10:24PM 51.5704 -1.8362 122° Southeast 490 564 35,500  Descending FlightAware UK
10:24PM 51.5525 -1.8022 122° Southeast 495 570 37,000  Climbing FlightAware ADS-B
10:24PM 51.5260 -1.7513 122° Southeast 490 564 35,500  Descending FlightAware UK
10:25PM 51.5078 -1.7167 122° Southeast 493 567 37,000  Climbing FlightAware ADS-B
10:25PM 51.4826 -1.6682 122° Southeast 486 559 35,500  Descending FlightAware UK
10:25PM 51.4635 -1.6318 122° Southeast 492 566 37,000  Climbing FlightAware ADS-B
10:25PM 51.4389 -1.5846 122° Southeast 488 562 35,500  Descending FlightAware UK
10:26PM 51.4196 -1.5476 122° Southeast 491 565 37,000  Climbing FlightAware ADS-B
10:26PM 51.3953 -1.5012 122° Southeast 492 566 35,500  Descending FlightAware UK
10:26PM 51.3762 -1.4645 122° Southeast 488 562 37,000  Climbing FlightAware ADS-B
10:26PM 51.3517 -1.4177 122° Southeast 490 564 35,500  Descending FlightAware UK
10:27PM 51.3322 -1.3807 122° Southeast 485 558 37,000  Climbing FlightAware ADS-B
10:27PM 51.3094 -1.3368 122° Southeast 490 564 35,500  Descending FlightAware UK
10:27PM 51.2889 -1.2981 122° Southeast 481 554 37,000  Climbing FlightAware ADS-B
10:27PM 51.2664 -1.2551 122° Southeast 490 564 35,500  Descending FlightAware UK
10:28PM 51.2461 -1.2168 122° Southeast 478 550 37,000  Climbing FlightAware ADS-B
10:28PM 51.2237 -1.1742 122° Southeast 490 564 35,500  Descending FlightAware UK
10:28PM 51.2031 -1.1354 122° Southeast 475 547 37,000  Climbing FlightAware ADS-B
10:28PM 51.1811 -1.0936 122° Southeast 486 559 35,500  Descending FlightAware UK
10:29PM 51.1607 -1.0555 122° Southeast 471 542 37,000  Climbing FlightAware ADS-B
10:29PM 51.1389 -1.0143 122° Southeast 480 552 35,500  Descending FlightAware UK
10:29PM 51.1181 -0.9753 122° Southeast 471 542 37,000  Climbing FlightAware ADS-B
10:30PM 51.0891 -0.9206 122° Southeast 480 552 35,500  Descending FlightAware UK
10:30PM 51.0753 -0.8950 122° Southeast 473 544 37,000  Climbing FlightAware ADS-B
10:30PM 51.0547 -0.8563 122° Southeast 480 552 35,500  Descending FlightAware UK
10:30PM 51.0323 -0.8147 122° Southeast 474 545 37,000  Climbing FlightAware ADS-B
10:30PM 51.0119 -0.7766 122° Southeast 484 557 35,500  Descending FlightAware UK
10:31PM 50.9889 -0.7339 122° Southeast 475 547 37,000  Climbing FlightAware ADS-B
10:31PM 50.9608 -0.6815 122° Southeast 488 562 35,500  Descending FlightAware UK
10:31PM 50.9461 -0.6544 122° Southeast 474 545 37,000  Climbing FlightAware ADS-B
10:32PM 50.9182 -0.6025 122° Southeast 486 559 35,500  Descending FlightAware UK
10:32PM 50.9032 -0.5751 122° Southeast 473 544 37,000  Climbing FlightAware ADS-B
10:32PM 50.8753 -0.5235 122° Southeast 488 562 35,500  Descending FlightAware UK
10:32PM 50.8601 -0.4957 122° Southeast 474 545 37,000  Climbing FlightAware ADS-B
10:33PM 50.8326 -0.4450 122° Southeast 488 562 35,500  Descending FlightAware UK
10:33PM 50.8173 -0.4171 122° Southeast 474 545 37,000  Climbing FlightAware ADS-B
10:33PM 50.7899 -0.3664 122° Southeast 488 562 35,500  Descending FlightAware UK
10:33PM 50.7742 -0.3381 122° Southeast 474 545 37,000  Climbing FlightAware ADS-B
10:34PM 50.7467 -0.2875 122° Southeast 490 564 35,500  Descending FlightAware UK
10:34PM 50.7310 -0.2591 122° Southeast 473 544 37,000  Climbing FlightAware ADS-B
10:34PM 50.7039 -0.2093 122° Southeast 486 559 35,500  Descending FlightAware UK
10:34PM 50.6873 -0.1794 122° Southeast 472 543 37,000  Climbing FlightAware ADS-B
10:35PM 50.6614 -0.1318 122° Southeast 486 559 35,500 -420 Descending FlightAware UK
10:35PM 50.6440 -0.1007 122° Southeast 476 548 36,800 -1,800 Climbing FlightAware ADS-B
10:35PM 50.6183 -0.0541 122° Southeast 490 564 34,600 -2,340 Descending FlightAware UK
10:35PM 50.5998 -0.0208 122° Southeast 478 550 35,600 -2,520 Climbing FlightAware ADS-B
10:36PM 50.5739 0.0259 122° Southeast 484 557 33,300 -2,640 Descending FlightAware UK
10:36PM 50.5563 0.0577 122° Southeast 473 544 34,300 -2,640 Climbing FlightAware ADS-B
10:36PM 50.5305 0.1043 122° Southeast 478 550 32,000 -2,400 Descending FlightAware UK
10:36PM 50.5133 0.1352 122° Southeast 467 537 33,100 -2,400 Climbing FlightAware ADS-B
10:37PM 50.4883 0.1797 122° Southeast 476 548 30,800 -2,520 Descending FlightAware UK
10:37PM 50.4700 0.2126 122° Southeast 461 531 31,800 -2,400 Climbing FlightAware ADS-B
10:37PM 50.4461 0.2554 122° Southeast 470 541 29,600 -2,400 Descending FlightAware UK
10:37PM 50.4280 0.2878 122° Southeast 454 522 30,600 -2,220 Climbing FlightAware ADS-B
10:38PM 50.4049 0.3288 122° Southeast 462 532 28,500 -2,220 Descending FlightAware UK
10:38PM 50.3864 0.3618 122° Southeast 446 513 29,500 -2,400 Climbing FlightAware ADS-B
10:38PM 50.3639 0.4016 122° Southeast 452 520 27,300 -2,460 Descending FlightAware UK
10:38PM 50.3499 0.4246 122° Southeast 445 512 28,400 -1,620 Climbing FlightAware ADS-B
10:39PM 50.3199 0.4695 122° Southeast 440 506 26,500 -1,140 Descending FlightAware UK
10:39PM 50.3030 0.4910 122° Southeast 446 513 27,800 1,980 Climbing FlightAware
10:39PM 50.2720 0.5283 142° Southeast 447 514 27,500 -3,720 Descending FlightAware ADS-B
10:39PM 50.2420 0.5617 142° Southeast 426 490 25,700 -3,540 Descending FlightAware UK
10:40PM 50.2115 0.5949 145° Southeast 422 486 25,400 4,080 Descending FlightAware UK
10:40PM 50.2120 0.5945 145° Southeast 441 507 27,000 -1,020 Climbing FlightAware ADS-B
10:40PM 50.1816 0.6277 145° Southeast 420 483 25,100 -1,140 Descending FlightAware UK
10:40PM 50.1610 0.6500 145° Southeast 438 504 26,400 -1,020 Climbing FlightAware
10:40PM 50.1317 0.6815 145° Southeast 422 486 24,600 -3,720 Descending FlightAware UK
10:41PM 50.1022 0.7136 145° Southeast 420 483 24,300 3,000 Descending FlightAware UK
10:41PM 50.0960 0.7210 145° Southeast 429 494 25,800 -780 Climbing FlightAware
10:41PM 50.0638 0.7559 145° Southeast 416 479 24,000 -3,600 Descending FlightAware UK
10:41PM 50.0355 0.7871 145° Southeast 416 479 23,700 3,240 Descending FlightAware UK
10:42PM 50.0310 0.7920 145° Southeast 420 483 25,200 -720 Climbing FlightAware
10:42PM 49.9969 0.8295 145° Southeast 410 472 23,400 -3,480 Descending FlightAware UK
10:42PM 49.9689 0.8600 145° Southeast 406 467 23,000 2,640 Descending FlightAware UK
10:42PM 49.9590 0.8700 145° Southeast 414 476 24,500 -780 Climbing FlightAware
10:43PM 49.9311 0.9006 145° Southeast 406 467 22,700 -3,780 Descending FlightAware UK
10:43PM 49.9026 0.9312 145° Southeast 406 467 22,300 2,820 Descending FlightAware UK
10:43PM 49.8970 0.9370 145° Southeast 409 471 23,800 -540 Climbing FlightAware
10:43PM 49.8655 0.9708 145° Southeast 402 463 22,100 -3,600 Descending FlightAware UK
10:44PM 49.8384 1.0002 145° Southeast 402 463 21,600 1,800 Descending FlightAware UK
10:44PM 49.8290 1.0100 145° Southeast 396 456 22,900 -2,280 Climbing FlightAware
10:44PM 49.8021 1.0389 145° Southeast 402 463 20,700 -4,800 Descending FlightAware UK
10:44PM 49.7756 1.0675 145° Southeast 398 458 20,200 2,220 Descending FlightAware UK
10:44PM 49.7700 1.0730 145° Southeast 385 443 21,600 -2,040 Climbing FlightAware
10:45PM 49.7405 1.1047 145° Southeast 394 453 19,400 -4,500 Descending FlightAware UK
10:45PM 49.7147 1.1326 145° Southeast 388 447 18,900 2,700 Descending FlightAware UK
10:45PM 49.7120 1.1350 145° Southeast 375 432 20,400 -2,040 Climbing FlightAware
10:45PM 49.6806 1.1690 145° Southeast 382 440 18,100 -4,440 Descending FlightAware UK
10:46PM 49.6552 1.1959 146° Southeast 378 435 17,600 1,920 Descending FlightAware UK
10:46PM 49.6480 1.2040 146° Southeast 364 419 18,900 -2,040 Climbing FlightAware
10:46PM 49.6223 1.2308 146° Southeast 374 430 16,800 -4,500 Descending FlightAware UK
10:46PM 49.5980 1.2567 145° Southeast 370 426 16,300 2,340 Descending FlightAware UK
10:46PM 49.5930 1.2620 145° Southeast 356 410 17,700 -2,280 Climbing FlightAware
10:47PM 49.5649 1.2918 145° Southeast 364 419 15,400 -2,100 Descending FlightAware UK
10:47PM 49.5646 1.2924 145° Southeast 356 410 17,000 -2,040 Climbing FlightAware ADS-B
10:47PM 49.5406 1.3176 145° Southeast 358 412 14,800 -4,680 Descending FlightAware UK
10:47PM 49.5170 1.3428 145° Southeast 356 410 14,300 2,700 Descending FlightAware UK
10:47PM 49.5148 1.3450 145° Southeast 352 405 15,700 -2,340 Climbing FlightAware ADS-B
10:48PM 49.4926 1.3686 145° Southeast 354 407 13,600 -4,620 Descending FlightAware UK
10:48PM 49.4688 1.3935 146° Southeast 354 407 13,100 -1,860 Descending FlightAware UK
10:48PM 49.4444 1.4192 146° Southeast 350 403 12,500 840 Descending FlightAware UK
10:49PM 49.4280 1.4370 146° Southeast 348 400 13,600 -2,040 Climbing FlightAware
10:49PM 49.4207 1.4439 146° Southeast 348 400 11,900 -6,900 Descending FlightAware UK
10:49PM 49.3971 1.4688 146° Southeast 348 400 11,300 -2,040 Descending FlightAware UK
10:49PM 49.3730 1.4941 146° Southeast 350 403 10,700 1,680 Descending FlightAware UK
10:49PM 49.3660 1.5010 146° Southeast 345 397 12,000 -1,800 Climbing FlightAware
10:50PM 49.3418 1.5265 146° Southeast 344 396 10,000 -4,680 Descending FlightAware UK
10:50PM 49.3181 1.5516 145° Southeast 342 394 9,300 2,820 Descending FlightAware UK
10:50PM 49.3183 1.5534 145° Southeast 341 392 10,900 -1,020 Climbing FlightAware ADS-B
10:50PM 49.2981 1.5807 145° Southeast 332 382 9,000 -3,780 Descending FlightAware UK
10:50PM 49.2770 1.6078 140° Southeast 318 366 8,700 2,040 Descending FlightAware UK
10:51PM 49.2640 1.6240 140° Southeast 316 364 10,100 -840 Climbing FlightAware
10:51PM 49.2441 1.6514 140° Southeast 302 348 8,300 -960 Descending FlightAware UK
10:51PM 49.2342 1.6600 140° Southeast 301 346 9,700 3,240 Climbing FlightAware ADS-B
10:51PM 49.2178 1.6799 142° Southeast 293 337 9,600 -780 Descending FlightAware ADS-B
10:52PM 49.2010 1.7002 142° Southeast 288 331 9,300 -1,200 Descending FlightAware ADS-B
10:52PM 49.1856 1.7189 142° Southeast 285 328 9,000 -1,440 Descending FlightAware ADS-B
10:52PM 49.1696 1.7383 142° Southeast 283 326 8,600 -1,380 Descending FlightAware ADS-B
10:52PM 49.1539 1.7578 141° Southeast 281 323 8,300 -1,200 Descending FlightAware ADS-B
10:53PM 49.1385 1.7770 141° Southeast 280 322 8,000 -1,320 Descending FlightAware ADS-B
10:53PM 49.1120 1.8106 140° Southeast 277 319 7,400 -1,440 Descending FlightAware ADS-B
10:54PM 49.0879 1.8417 140° Southeast 275 316 6,800 -1,320 Descending FlightAware ADS-B
10:54PM 49.0729 1.8614 139° Southeast 273 314 6,500 -1,200 Descending FlightAware ADS-B
10:54PM 49.0685 1.8677 137° Southeast 272 313 6,400 -2,040 Descending FlightAware ADS-B
10:54PM 49.0642 1.8746 133° Southeast 270 311 6,200 -1,440 Descending FlightAware ADS-B
10:54PM 49.0550 1.8910 131° Southeast 268 308 6,000 -1,140 Descending FlightAware ADS-B
10:54PM 49.0430 1.9133 129° Southeast 267 307 5,700 -1,440 Descending FlightAware ADS-B
10:55PM 49.0309 1.9354 130° Southeast 266 306 5,300 -1,500 Descending FlightAware ADS-B
10:55PM 49.0272 1.9424 129° Southeast 264 304 5,200 -780 Descending FlightAware ADS-B
10:55PM 49.0250 1.9470 126° Southeast 264 304 5,200 -900 Level FlightAware ADS-B
10:55PM 49.0223 1.9530 125° Southeast 263 303 5,100 -660 Descending FlightAware ADS-B
10:55PM 49.0133 1.9762 121° Southeast 260 299 5,000 -420 Descending FlightAware ADS-B
10:55PM 49.0038 2.0015 120° Southeast 260 299 4,900  Descending FlightAware ADS-B
10:56PM 48.9970 2.0200 119° Southeast 261 300 5,000 180 Climbing FlightAware ADS-B
10:56PM 48.9890 2.0447 116° Southeast 260 299 5,000  Level FlightAware ADS-B
10:56PM 48.9831 2.0635 116° Southeast 261 300 5,000  Level FlightAware ADS-B
10:56PM 48.9778 2.0824 113° Southeast 260 299 5,000  Level FlightAware ADS-B
10:56PM 48.9757 2.0909 111° Southeast 259 298 5,000  Level FlightAware ADS-B
10:56PM 48.9743 2.0973 108° East 258 297 5,000  Level FlightAware ADS-B
10:56PM 48.9725 2.1097 103° East 257 296 5,000  Level FlightAware ADS-B
10:56PM 48.9722 2.1160 94° East 256 295 5,000  Level FlightAware ADS-B
10:57PM 48.9721 2.1215 92° East 256 295 5,000  Level FlightAware ADS-B
10:57PM 48.9723 2.1278 87° East 255 293 5,000  Level FlightAware ADS-B
10:57PM 48.9729 2.1366 84° East 254 292 5,000 -360 Level FlightAware ADS-B
10:57PM 48.9744 2.1590 84° East 251 289 4,900 -240 Descending FlightAware ADS-B
10:57PM 48.9751 2.1804 87° East 239 275 4,900 240 Level FlightAware ADS-B
10:57PM 48.9764 2.2018 85° East 225 259 5,000 -240 Climbing FlightAware ADS-B
10:58PM 48.9777 2.2248 85° East 213 245 4,800 -900 Descending FlightAware ADS-B
10:58PM 48.9787 2.2437 85° East 212 244 4,600 -1,320 Descending FlightAware ADS-B
10:58PM 48.9800 2.2666 85° East 213 245 4,200 -1,320 Descending FlightAware ADS-B
10:58PM 48.9810 2.2854 85° East 213 245 4,000 -1,260 Descending FlightAware ADS-B
10:58PM 48.9819 2.3028 85° East 212 244 3,700 -1,440 Descending FlightAware ADS-B
10:59PM 48.9831 2.3233 85° East 209 241 3,400 -1,080 Descending FlightAware ADS-B
10:59PM 48.9838 2.3355 85° East 205 236 3,300 -900 Descending FlightAware ADS-B
10:59PM 48.9847 2.3522 85° East 198 228 3,100 -1,200 Descending FlightAware ADS-B
10:59PM 48.9853 2.3653 86° East 193 222 2,900 -1,200 Descending FlightAware ADS-B
10:59PM 48.9862 2.3793 84° East 190 219 2,700 -1,080 Descending FlightAware ADS-B
11:00PM 48.9874 2.4016 85° East 182 209 2,400 -1,140 Descending FlightAware ADS-B
11:00PM 48.9880 2.4152 86° East 176 203 2,200 -1,020 Descending FlightAware ADS-B
11:00PM 48.9890 2.4312 85° East 161 185 2,000 -1,020 Descending FlightAware ADS-B
11:00PM 48.9901 2.4490 85° East 150 173 1,700 -840 Descending FlightAware ADS-B
11:01PM 48.9908 2.4617 85° East 143 165 1,600 -660 Descending FlightAware ADS-B
11:01PM 48.9914 2.4763 86° East 131 151 1,400 -900 Descending FlightAware ADS-B
11:01PM 48.9917 2.4809 84° East 129 148 1,300 -900 Descending FlightAware ADS-B
11:01PM 48.9926 2.4954 85° East 134 154 1,100 -840 Descending FlightAware ADS-B
11:01PM 48.9930 2.5027 85° East 139 160 1,000 -840 Descending FlightAware ADS-B
11:02PM 48.9938 2.5182 85° East 143 165 800 -840 Descending FlightAware ADS-B
11:02PM 48.9941 2.5248 86° East 146 168 700 -900 Descending FlightAware ADS-B
11:02PM 48.9950 2.5406 85° East 150 173 500 -720 Descending FlightAware ADS-B
11:02PM 48.9957 2.5521 85° East 150 173 400 -600 Descending FlightAware ADS-B